Time;durP1;ratioP1;P1;durP2;ratioP2;P2;SDS_P1;SDS_P2;PMS_P1;PMS_P2;Temp;Humidity;BMP_temperature;BMP_pressure;BME280_temperature;BME280_humidity;BME280_pressure;Samples;Min_cycle;Max_cycle;Signal;HPM_P1;HPM_P2
2021/06/25 00:01:04;;;;;;;7.10;5.90;;;16.30;99.90;;;;;;5012281;28;20399;-74
2021/06/25 00:03:30;;;;;;;7.40;6.70;;;16.40;99.90;;;;;;5012362;28;20485;-75
2021/06/25 00:05:57;;;;;;;7.03;6.30;;;16.50;99.90;;;;;;5014177;28;20076;-74
2021/06/25 00:08:23;;;;;;;6.78;6.13;;;16.60;99.90;;;;;;5013632;28;20053;-74
2021/06/25 00:10:50;;;;;;;7.05;6.45;;;16.60;99.90;;;;;;5012237;28;20050;-74
2021/06/25 00:13:18;;;;;;;7.03;6.30;;;16.60;99.90;;;;;;5016696;28;20053;-74
2021/06/25 00:15:45;;;;;;;7.30;6.60;;;16.60;99.90;;;;;;5031735;28;20049;-74
2021/06/25 00:18:13;;;;;;;6.82;5.53;;;16.60;99.90;;;;;;5031794;28;20054;-74
2021/06/25 00:20:40;;;;;;;6.10;5.60;;;16.60;99.90;;;;;;5031879;28;20050;-74
2021/06/25 00:23:06;;;;;;;7.85;7.15;;;16.60;99.90;;;;;;5031772;28;20049;-74
2021/06/25 00:25:33;;;;;;;8.88;7.10;;;16.50;99.90;;;;;;5030968;28;20362;-74
2021/06/25 00:28:00;;;;;;;7.40;6.70;;;16.40;99.90;;;;;;5013965;28;20045;-74
2021/06/25 00:30:28;;;;;;;7.22;6.53;;;16.30;99.90;;;;;;5014125;28;20102;-75
2021/06/25 00:32:54;;;;;;;8.73;7.55;;;16.20;99.90;;;;;;5014030;28;20050;-74
2021/06/25 00:35:21;;;;;;;8.30;6.80;;;16.20;99.90;;;;;;5024745;28;20065;-74
2021/06/25 00:37:47;;;;;;;8.43;7.53;;;16.20;99.90;;;;;;5031352;28;20069;-74
2021/06/25 00:40:15;;;;;;;7.30;6.65;;;16.30;99.90;;;;;;5029860;28;20077;-73
2021/06/25 00:42:41;;;;;;;8.52;7.68;;;16.20;99.90;;;;;;5030085;28;20504;-73
2021/06/25 00:45:16;;;;;;;8.65;6.82;;;16.20;99.90;;;;;;5035086;28;20103;-73
2021/06/25 00:47:45;;;;;;;9.25;7.28;;;16.10;99.90;;;;;;5019499;28;20077;-74
2021/06/25 00:50:13;;;;;;;8.50;7.35;;;16.00;99.90;;;;;;5020965;28;20046;-74
2021/06/25 00:52:40;;;;;;;8.75;7.38;;;16.10;99.90;;;;;;5035166;28;20073;-74
2021/06/25 00:55:07;;;;;;;8.13;7.32;;;16.10;99.90;;;;;;5017328;28;20073;-74
2021/06/25 00:57:34;;;;;;;8.52;7.10;;;16.10;99.90;;;;;;5015135;28;20050;-74
2021/06/25 01:00:00;;;;;;;9.13;7.35;;;16.10;99.90;;;;;;5015157;28;20483;-74
2021/06/25 01:02:27;;;;;;;8.73;7.78;;;16.10;99.90;;;;;;5016493;28;20124;-74
2021/06/25 01:04:55;;;;;;;7.25;6.55;;;16.20;99.90;;;;;;5034808;28;20695;-74
2021/06/25 01:07:22;;;;;;;11.80;7.13;;;16.30;99.90;;;;;;5034533;28;20053;-74
2021/06/25 01:09:48;;;;;;;7.53;6.72;;;16.30;99.90;;;;;;5034479;28;20516;-74
2021/06/25 01:12:15;;;;;;;7.47;6.78;;;16.30;99.90;;;;;;5035019;28;20111;-74
2021/06/25 01:14:41;;;;;;;10.40;6.53;;;16.30;99.90;;;;;;5034251;28;20429;-74
2021/06/25 01:17:08;;;;;;;9.73;7.00;;;16.40;99.90;;;;;;5033631;28;20528;-74
2021/06/25 01:19:35;;;;;;;8.05;7.07;;;16.40;99.90;;;;;;5015530;28;20465;-74
2021/06/25 01:22:04;;;;;;;7.05;6.28;;;16.30;99.90;;;;;;5014614;28;20508;-74
2021/06/25 01:24:30;;;;;;;7.85;7.10;;;16.30;99.90;;;;;;5015298;28;20046;-74
2021/06/25 01:26:57;;;;;;;8.90;7.55;;;16.20;99.90;;;;;;5026323;28;20064;-74
2021/06/25 01:29:23;;;;;;;8.05;7.25;;;16.10;99.90;;;;;;5033428;28;20084;-74
2021/06/25 01:31:51;;;;;;;10.57;6.90;;;16.10;99.90;;;;;;5033625;28;20100;-74
2021/06/25 01:34:18;;;;;;;9.30;7.45;;;16.00;99.90;;;;;;5035415;28;20075;-74
2021/06/25 01:36:46;;;;;;;9.00;7.82;;;15.90;99.90;;;;;;5034557;28;20045;-74
2021/06/25 01:39:15;;;;;;;8.05;7.20;;;15.80;99.90;;;;;;5035368;28;20130;-74
2021/06/25 01:41:41;;;;;;;8.20;7.03;;;15.70;99.90;;;;;;5034245;28;20081;-74
2021/06/25 01:44:08;;;;;;;8.32;7.53;;;15.60;99.90;;;;;;5034855;28;20068;-74
2021/06/25 01:46:35;;;;;;;8.55;7.72;;;15.70;99.90;;;;;;5025584;28;20046;-74
2021/06/25 01:49:02;;;;;;;9.38;7.82;;;15.60;99.90;;;;;;5015774;28;20092;-74
2021/06/25 01:51:29;;;;;;;9.77;7.57;;;15.60;99.90;;;;;;5014179;28;20111;-74
2021/06/25 01:53:56;;;;;;;11.40;7.93;;;15.60;99.90;;;;;;5014593;28;20050;-74
2021/06/25 01:56:24;;;;;;;10.98;6.25;;;15.60;99.90;;;;;;5014434;28;20413;-74
2021/06/25 01:58:51;;;;;;;7.65;6.80;;;15.70;99.90;;;;;;5033035;28;20045;-74
2021/06/25 02:01:17;;;;;;;8.75;7.75;;;15.70;99.90;;;;;;5033717;28;20488;-73
2021/06/25 02:03:45;;;;;;;8.60;7.00;;;15.70;99.90;;;;;;5033092;28;20061;-75
2021/06/25 02:06:13;;;;;;;6.72;6.13;;;15.70;99.90;;;;;;5033657;28;20083;-74
2021/06/25 02:08:40;;;;;;;9.10;7.30;;;15.80;99.90;;;;;;5033532;28;20041;-74
2021/06/25 02:11:07;;;;;;;7.60;6.72;;;15.70;99.90;;;;;;5033652;28;20406;-75
2021/06/25 02:13:35;;;;;;;8.80;7.80;;;15.80;99.90;;;;;;5015856;28;20060;-75
2021/06/25 02:16:02;;;;;;;9.20;6.38;;;15.90;99.90;;;;;;5013582;28;20108;-73
2021/06/25 02:18:28;;;;;;;8.63;7.20;;;15.90;99.90;;;;;;5013627;28;20507;-73
2021/06/25 02:20:55;;;;;;;6.57;5.97;;;15.90;99.90;;;;;;5013613;28;20049;-75
2021/06/25 02:23:22;;;;;;;7.20;6.40;;;15.90;99.90;;;;;;5013427;28;20461;-74
2021/06/25 02:25:48;;;;;;;7.85;6.47;;;15.90;99.90;;;;;;5015085;28;20046;-74
2021/06/25 02:28:15;;;;;;;8.20;7.03;;;15.90;99.90;;;;;;5021419;28;20050;-74
2021/06/25 02:30:43;;;;;;;7.80;7.05;;;15.90;99.90;;;;;;5013303;28;20553;-74
2021/06/25 02:33:09;;;;;;;6.80;6.10;;;16.00;99.90;;;;;;5027035;28;20045;-74
2021/06/25 02:35:36;;;;;;;8.65;7.57;;;16.00;99.90;;;;;;5032938;28;20091;-74
2021/06/25 02:38:03;;;;;;;9.27;8.30;;;15.90;99.90;;;;;;5032730;28;20472;-74
2021/06/25 02:40:29;;;;;;;11.77;7.70;;;15.90;99.90;;;;;;5032139;28;20049;-73
2021/06/25 02:42:56;;;;;;;10.98;7.93;;;15.90;99.90;;;;;;5017032;28;20487;-74
2021/06/25 02:45:23;;;;;;;7.35;6.65;;;15.90;99.90;;;;;;5012929;28;20050;-73
2021/06/25 02:47:51;;;;;;;8.60;7.78;;;15.90;99.90;;;;;;5013219;28;20057;-74
2021/06/25 02:50:18;;;;;;;10.02;8.90;;;15.90;99.90;;;;;;5029094;28;20045;-74
2021/06/25 02:52:44;;;;;;;7.68;6.75;;;15.90;99.90;;;;;;5027250;28;20447;-74
2021/06/25 02:55:12;;;;;;;7.32;6.63;;;15.90;99.90;;;;;;5028185;28;20456;-73
2021/06/25 02:57:39;;;;;;;8.55;7.65;;;16.00;99.90;;;;;;5032789;28;20045;-73
2021/06/25 03:00:09;;;;;;;8.25;7.40;;;16.00;99.90;;;;;;5032521;28;20076;-73
2021/06/25 03:02:36;;;;;;;7.95;7.22;;;16.00;99.90;;;;;;5032070;28;20092;-74
2021/06/25 03:05:06;;;;;;;8.38;7.57;;;15.90;99.90;;;;;;5032207;28;20485;-73
2021/06/25 03:07:32;;;;;;;7.75;6.95;;;15.90;99.90;;;;;;5029995;28;20065;-75
2021/06/25 03:09:59;;;;;;;9.13;6.82;;;16.00;99.90;;;;;;5012951;28;20058;-74
2021/06/25 03:12:26;;;;;;;8.45;6.80;;;16.00;99.90;;;;;;5012936;28;20473;-74
2021/06/25 03:14:53;;;;;;;8.40;6.65;;;16.00;99.90;;;;;;5012807;28;20196;-74
2021/06/25 03:17:19;;;;;;;8.13;7.40;;;16.00;99.90;;;;;;5012464;28;20065;-74
2021/06/25 03:19:46;;;;;;;8.70;7.57;;;15.90;99.90;;;;;;5012941;28;20074;-74
2021/06/25 03:22:14;;;;;;;11.32;7.68;;;15.90;99.90;;;;;;5017651;28;20077;-74
2021/06/25 03:24:40;;;;;;;11.13;9.10;;;15.90;99.90;;;;;;5032572;28;20046;-74
2021/06/25 03:27:07;;;;;;;10.02;7.75;;;15.80;99.90;;;;;;5017694;28;20469;-74
2021/06/25 03:29:34;;;;;;;9.80;7.65;;;15.90;99.90;;;;;;5012850;28;20096;-74
2021/06/25 03:32:00;;;;;;;8.32;7.07;;;15.90;99.90;;;;;;5027857;28;20091;-76
2021/06/25 03:34:27;;;;;;;7.75;6.53;;;16.00;99.90;;;;;;5032559;28;20091;-75
2021/06/25 03:36:53;;;;;;;9.88;8.20;;;16.00;99.90;;;;;;5030946;28;20076;-74
2021/06/25 03:39:21;;;;;;;8.05;7.07;;;16.10;99.90;;;;;;5023752;28;20046;-75
2021/06/25 03:41:48;;;;;;;11.48;7.50;;;16.10;99.90;;;;;;5018268;28;20638;-74
2021/06/25 03:44:15;;;;;;;8.70;7.32;;;16.10;99.90;;;;;;5029576;28;20045;-73
2021/06/25 03:46:41;;;;;;;8.43;7.50;;;16.10;99.90;;;;;;5030727;28;20096;-75
2021/06/25 03:49:08;;;;;;;9.07;7.80;;;16.00;99.90;;;;;;5032396;28;20049;-76
2021/06/25 03:51:51;;;;;;;9.65;7.97;;;16.10;99.90;;;;;;5030126;28;20074;-74
2021/06/25 03:54:33;;;;;;;8.68;7.40;;;16.10;99.90;;;;;;5023355;28;20045;-73
2021/06/25 03:56:59;;;;;;;10.65;8.80;;;16.00;99.90;;;;;;5031915;28;20156;-73
2021/06/25 03:59:26;;;;;;;8.95;8.05;;;16.00;99.90;;;;;;5031877;28;20416;-76
2021/06/25 04:01:53;;;;;;;11.93;8.60;;;16.00;99.90;;;;;;5014152;28;20124;-75
2021/06/25 04:04:19;;;;;;;11.02;9.00;;;16.10;99.90;;;;;;5013626;28;20057;-76
2021/06/25 04:06:46;;;;;;;12.77;11.05;;;16.10;99.90;;;;;;5015043;28;20046;-78
2021/06/25 04:09:13;;;;;;;18.00;13.32;;;16.20;99.90;;;;;;5032441;28;20075;-73
2021/06/25 04:11:40;;;;;;;14.07;10.65;;;16.20;99.90;;;;;;5031807;28;20049;-73
2021/06/25 04:14:07;;;;;;;34.88;22.85;;;16.20;99.90;;;;;;5032667;28;20049;-75
2021/06/25 04:16:34;;;;;;;12.93;11.63;;;16.20;99.90;;;;;;5035903;28;20473;-71
2021/06/25 04:19:00;;;;;;;16.92;13.15;;;16.20;99.90;;;;;;5032471;28;20073;-72
2021/06/25 04:21:27;;;;;;;28.42;19.02;;;16.20;99.90;;;;;;5028473;28;20445;-74
2021/06/25 04:23:53;;;;;;;35.50;19.15;;;16.20;99.90;;;;;;5035633;28;20084;-73
2021/06/25 04:26:20;;;;;;;42.90;25.45;;;16.30;99.90;;;;;;5034881;28;20495;-74
2021/06/25 04:28:48;;;;;;;19.73;14.38;;;16.40;99.90;;;;;;5035062;28;20563;-74
2021/06/25 04:31:14;;;;;;;23.58;15.70;;;16.40;99.90;;;;;;5032558;28;20467;-72
2021/06/25 04:33:41;;;;;;;27.08;18.98;;;16.40;99.90;;;;;;5018179;28;20056;-72
2021/06/25 04:36:07;;;;;;;18.42;11.60;;;16.50;99.90;;;;;;5018738;28;20076;-74
2021/06/25 04:38:34;;;;;;;40.45;29.67;;;16.60;99.90;;;;;;5015400;28;20446;-75
2021/06/25 04:41:03;;;;;;;31.05;22.35;;;16.70;99.90;;;;;;5015898;28;20050;-76
2021/06/25 04:43:30;;;;;;;32.05;21.10;;;16.90;99.90;;;;;;5015759;28;20073;-76
2021/06/25 04:45:59;;;;;;;15.98;11.20;;;17.00;99.90;;;;;;5015277;28;20045;-74
2021/06/25 04:48:26;;;;;;;14.57;9.90;;;17.10;99.90;;;;;;5017849;28;20065;-76
2021/06/25 04:50:53;;;;;;;16.77;10.88;;;17.10;99.90;;;;;;5034658;28;20477;-74
2021/06/25 04:53:20;;;;;;;13.80;9.38;;;17.20;99.90;;;;;;5023567;28;20037;-75
2021/06/25 04:55:46;;;;;;;13.63;10.65;;;17.20;99.90;;;;;;5033837;28;20597;-74
2021/06/25 04:58:15;;;;;;;14.70;9.65;;;17.30;99.90;;;;;;5035134;28;20049;-76
2021/06/25 05:00:43;;;;;;;13.68;10.55;;;17.40;99.90;;;;;;5036159;28;20042;-76
2021/06/25 05:03:11;;;;;;;11.15;9.18;;;17.50;99.90;;;;;;5035772;28;20481;-71
2021/06/25 05:05:39;;;;;;;13.82;10.05;;;17.60;99.90;;;;;;5034703;28;20042;-71
2021/06/25 05:08:06;;;;;;;11.38;9.65;;;17.80;99.90;;;;;;5035928;28;20050;-78
2021/06/25 05:10:33;;;;;;;12.00;9.82;;;17.90;99.90;;;;;;5034795;28;20096;-74
2021/06/25 05:12:59;;;;;;;11.75;8.75;;;18.00;99.90;;;;;;5030415;28;20177;-74
2021/06/25 05:15:26;;;;;;;11.23;8.75;;;18.10;99.90;;;;;;5034566;28;20080;-72
2021/06/25 05:17:53;;;;;;;11.00;8.68;;;18.10;99.90;;;;;;5034486;28;20478;-72
2021/06/25 05:20:22;;;;;;;8.45;7.60;;;18.20;99.90;;;;;;5034090;28;20041;-75
2021/06/25 05:22:49;;;;;;;8.98;7.55;;;18.30;99.90;;;;;;5034461;28;20489;-75
2021/06/25 05:25:15;;;;;;;10.48;8.32;;;18.30;99.90;;;;;;5021622;28;20077;-75
2021/06/25 05:27:42;;;;;;;10.57;7.45;;;18.30;99.90;;;;;;5014982;28;20466;-75
2021/06/25 05:30:10;;;;;;;10.77;7.47;;;18.30;99.90;;;;;;5033650;28;20548;-73
2021/06/25 05:32:37;;;;;;;8.63;7.07;;;18.30;99.90;;;;;;5034404;28;20049;-74
2021/06/25 05:35:04;;;;;;;13.15;8.73;;;18.40;99.90;;;;;;5034248;28;20543;-73
2021/06/25 05:37:32;;;;;;;9.80;7.78;;;18.60;99.90;;;;;;5021721;28;20057;-75
2021/06/25 05:39:59;;;;;;;11.45;6.97;;;18.80;99.90;;;;;;5034222;28;20045;-74
2021/06/25 05:42:25;;;;;;;10.23;7.82;;;18.70;99.90;;;;;;5034192;28;20069;-73
2021/06/25 05:44:52;;;;;;;9.52;8.40;;;18.60;99.90;;;;;;5034365;28;20382;-72
2021/06/25 05:47:18;;;;;;;10.30;7.13;;;18.70;99.90;;;;;;5033341;28;20077;-70
2021/06/25 05:49:45;;;;;;;8.13;7.13;;;18.80;99.90;;;;;;5034154;28;20088;-69
2021/06/25 05:52:12;;;;;;;9.07;8.13;;;18.90;99.90;;;;;;5025987;28;20056;-70
2021/06/25 05:54:40;;;;;;;9.82;7.32;;;18.90;99.90;;;;;;5014456;28;20054;-69
2021/06/25 05:57:07;;;;;;;9.85;7.25;;;19.00;99.90;;;;;;5023580;28;20087;-71
2021/06/25 05:59:34;;;;;;;9.23;7.10;;;19.20;99.90;;;;;;5033705;28;20072;-69
2021/06/25 06:02:01;;;;;;;11.52;8.35;;;19.40;99.90;;;;;;5033352;28;20493;-69
2021/06/25 06:04:27;;;;;;;12.60;7.75;;;19.80;99.90;;;;;;5025072;28;20073;-73
2021/06/25 06:06:54;;;;;;;8.40;7.38;;;20.00;99.90;;;;;;5024440;28;20091;-73
2021/06/25 06:09:21;;;;;;;10.25;7.38;;;20.30;99.90;;;;;;5030303;28;20077;-70
2021/06/25 06:11:49;;;;;;;8.90;7.15;;;20.60;99.90;;;;;;5034426;28;20046;-70
2021/06/25 06:14:16;;;;;;;8.27;7.47;;;20.40;99.90;;;;;;5033322;28;20072;-72
2021/06/25 06:16:42;;;;;;;12.93;7.93;;;20.60;99.90;;;;;;5019914;28;20049;-71
2021/06/25 06:19:09;;;;;;;8.10;6.93;;;21.10;99.90;;;;;;5025407;28;20473;-71
2021/06/25 06:32:50;;;;;;;7.70;6.22;;;22.50;99.90;;;;;;5020371;28;20053;-72
2021/06/25 06:35:17;;;;;;;10.20;6.28;;;22.40;99.90;;;;;;5032949;28;20132;-72
2021/06/25 06:37:49;;;;;;;14.38;10.38;;;22.30;99.90;;;;;;5023821;28;20073;-73
2021/06/25 06:40:19;;;;;;;19.02;14.52;;;22.20;99.90;;;;;;5013452;28;20089;-70
2021/06/25 06:42:47;;;;;;;12.20;10.45;;;22.00;99.90;;;;;;5028211;28;20065;-71
2021/06/25 06:45:15;;;;;;;17.60;13.35;;;22.00;99.90;;;;;;5032513;28;20416;-72
2021/06/25 06:47:41;;;;;;;10.75;8.50;;;21.70;99.90;;;;;;5032539;28;20409;-73
2021/06/25 06:50:09;;;;;;;17.63;13.60;;;21.60;99.90;;;;;;5032618;28;20647;-68
2021/06/25 06:52:35;;;;;;;10.38;9.25;;;21.50;99.90;;;;;;5031297;28;20148;-69
2021/06/25 06:55:02;;;;;;;17.70;12.30;;;20.90;99.90;;;;;;5032480;28;20081;-69
2021/06/25 06:57:28;;;;;;;20.70;14.07;;;21.20;99.90;;;;;;5030586;28;20072;-70
2021/06/25 06:59:56;;;;;;;10.50;8.98;;;21.30;99.90;;;;;;5029485;28;20042;-67
2021/06/25 07:02:23;;;;;;;14.45;9.02;;;21.50;99.90;;;;;;5032323;28;20501;-69
2021/06/25 07:04:49;;;;;;;22.67;15.05;;;21.70;99.90;;;;;;5020410;28;20045;-69
2021/06/25 07:07:16;;;;;;;23.08;16.35;;;22.00;99.90;;;;;;5051921;28;20385;-69
2021/06/25 07:09:42;;;;;;;11.45;7.93;;;22.20;99.90;;;;;;5040298;28;20081;-73
2021/06/25 07:12:10;;;;;;;10.35;8.38;;;22.20;99.90;;;;;;5031972;28;20049;-70
2021/06/25 07:14:36;;;;;;;17.73;12.60;;;22.40;99.90;;;;;;5031304;28;20073;-71
2021/06/25 07:17:05;;;;;;;10.68;9.48;;;22.20;99.90;;;;;;5031959;28;20041;-71
2021/06/25 07:19:31;;;;;;;12.63;7.53;;;22.30;99.90;;;;;;5032623;28;20049;-70
2021/06/25 07:21:58;;;;;;;12.18;10.23;;;22.00;99.90;;;;;;5032285;28;20045;-70
2021/06/25 07:24:24;;;;;;;11.80;8.27;;;21.70;99.90;;;;;;5032243;28;20613;-72
2021/06/25 07:26:51;;;;;;;16.17;9.50;;;21.60;99.90;;;;;;5032022;28;20444;-71
2021/06/25 07:29:17;;;;;;;10.60;9.35;;;21.70;99.90;;;;;;5032124;28;20559;-72
2021/06/25 07:31:44;;;;;;;9.90;8.25;;;21.40;99.90;;;;;;5032024;28;20095;-73
2021/06/25 07:34:12;;;;;;;15.93;12.02;;;20.90;99.90;;;;;;5037377;28;20076;-71
2021/06/25 07:36:38;;;;;;;19.80;11.80;;;20.90;99.90;;;;;;5051848;28;20076;-70
2021/06/25 07:39:06;;;;;;;22.70;15.68;;;21.00;99.90;;;;;;5052075;28;20044;-71
2021/06/25 07:41:33;;;;;;;20.92;13.77;;;21.00;99.90;;;;;;5051871;28;20048;-70
2021/06/25 07:44:00;;;;;;;15.95;10.68;;;21.20;99.90;;;;;;5051761;28;20049;-70
2021/06/25 07:46:26;;;;;;;13.10;10.35;;;21.50;99.90;;;;;;5052279;28;20076;-70
2021/06/25 07:48:53;;;;;;;16.60;11.15;;;21.40;99.90;;;;;;5036668;28;20436;-71
2021/06/25 07:51:21;;;;;;;14.27;9.73;;;21.50;99.90;;;;;;5034372;28;20072;-70
2021/06/25 07:53:47;;;;;;;14.63;10.63;;;21.60;99.90;;;;;;5036206;28;20049;-71
2021/06/25 07:56:14;;;;;;;7.07;6.35;;;21.60;99.90;;;;;;5035717;28;20077;-69
2021/06/25 07:58:41;;;;;;;25.17;16.20;;;21.50;99.90;;;;;;5035873;28;20132;-72
2021/06/25 08:01:09;;;;;;;42.83;25.05;;;21.60;99.90;;;;;;5026641;28;20045;-72
2021/06/25 08:03:35;;;;;;;25.45;17.73;;;21.50;99.90;;;;;;5035508;28;20119;-70
2021/06/25 08:06:02;;;;;;;16.67;12.23;;;21.40;99.90;;;;;;5035828;28;20045;-70
2021/06/25 08:08:30;;;;;;;17.85;11.65;;;21.30;99.90;;;;;;5032761;28;20078;-71
2021/06/25 08:10:57;;;;;;;21.20;15.45;;;21.30;99.90;;;;;;5016209;28;20103;-70
2021/06/25 08:13:24;;;;;;;11.13;9.73;;;21.30;99.90;;;;;;5015935;28;20050;-69
2021/06/25 08:15:50;;;;;;;42.28;25.40;;;21.10;99.90;;;;;;5016005;28;20077;-69
2021/06/25 08:18:17;;;;;;;16.92;12.52;;;20.90;99.90;;;;;;5016628;28;20053;-69
2021/06/25 08:20:44;;;;;;;17.23;10.70;;;20.80;99.90;;;;;;5015867;28;20076;-73
2021/06/25 08:23:11;;;;;;;17.98;11.60;;;20.80;99.90;;;;;;5016005;28;20486;-71
2021/06/25 08:25:39;;;;;;;11.60;7.75;;;20.70;99.90;;;;;;5034063;28;20077;-71
2021/06/25 08:28:06;;;;;;;12.43;9.63;;;20.60;99.90;;;;;;5035577;28;20049;-71
2021/06/25 08:30:33;;;;;;;10.80;9.18;;;20.50;99.90;;;;;;5035467;28;20127;-71
2021/06/25 08:33:00;;;;;;;14.23;10.13;;;20.30;99.90;;;;;;5035442;28;20041;-71
2021/06/25 08:35:27;;;;;;;8.77;7.88;;;20.20;99.90;;;;;;5033228;28;20054;-69
2021/06/25 08:37:54;;;;;;;10.68;7.72;;;20.10;99.90;;;;;;5018936;28;20069;-69
2021/06/25 08:40:22;;;;;;;19.45;14.27;;;20.10;99.90;;;;;;5018704;28;20081;-70
2021/06/25 08:42:51;;;;;;;19.10;14.30;;;19.90;99.90;;;;;;5032371;28;20493;-72
2021/06/25 08:45:18;;;;;;;12.50;9.90;;;19.80;99.90;;;;;;5023254;28;20049;-72
2021/06/25 08:47:46;;;;;;;12.77;9.90;;;19.30;99.90;;;;;;5054950;28;20509;-71
2021/06/25 08:50:14;;;;;;;13.20;10.43;;;19.00;99.90;;;;;;5055004;28;20052;-69
2021/06/25 08:52:43;;;;;;;15.60;10.55;;;18.70;99.90;;;;;;5038488;28;20050;-70
2021/06/25 08:55:10;;;;;;;12.85;10.48;;;18.60;99.90;;;;;;5035116;28;20140;-71
2021/06/25 08:57:37;;;;;;;18.95;13.00;;;18.70;99.90;;;;;;5034548;28;20045;-70
2021/06/25 09:00:07;;;;;;;13.48;11.48;;;18.70;99.90;;;;;;5035109;28;20057;-71
2021/06/25 09:02:36;;;;;;;16.55;12.82;;;18.50;99.90;;;;;;5035611;28;20046;-72
2021/06/25 09:05:05;;;;;;;13.15;10.95;;;18.60;99.90;;;;;;5035055;28;20107;-70
2021/06/25 09:07:42;;;;;;;14.10;10.43;;;18.50;99.90;;;;;;5034257;28;20045;-74
2021/06/25 09:10:09;;;;;;;10.98;9.50;;;18.70;99.90;;;;;;5034994;28;20041;-73
2021/06/25 09:12:36;;;;;;;11.27;8.95;;;18.90;99.90;;;;;;5034656;28;20045;-70
2021/06/25 09:15:11;;;;;;;14.93;12.10;;;19.00;99.90;;;;;;5045733;28;20455;-72
2021/06/25 09:17:54;;;;;;;23.50;16.83;;;19.30;99.90;;;;;;5046770;28;20053;-69
2021/06/25 09:20:30;;;;;;;11.63;10.27;;;19.70;99.90;;;;;;5034459;28;20111;-71
2021/06/25 09:22:57;;;;;;;11.85;9.88;;;19.90;99.90;;;;;;5034544;28;20069;-72
2021/06/25 09:25:23;;;;;;;10.88;9.48;;;20.20;99.90;;;;;;5033951;28;20046;-71
2021/06/25 09:27:55;;;;;;;18.67;12.55;;;20.70;99.90;;;;;;5034158;28;20041;-71
2021/06/25 09:30:24;;;;;;;11.35;9.10;;;21.60;99.90;;;;;;5034371;28;20049;-70
2021/06/25 09:32:51;;;;;;;8.70;7.80;;;23.00;99.90;;;;;;5034469;28;20068;-72
2021/06/25 09:35:19;;;;;;;9.30;7.43;;;24.20;99.90;;;;;;5033734;28;20050;-70
2021/06/25 09:37:49;;;;;;;10.70;8.15;;;24.40;99.90;;;;;;5033530;28;20091;-73
2021/06/25 09:40:17;;;;;;;10.88;8.63;;;25.10;99.90;;;;;;5034173;28;20049;-73
2021/06/25 09:42:45;;;;;;;10.82;7.97;;;25.90;99.90;;;;;;5034101;28;20056;-70
2021/06/25 09:45:15;;;;;;;9.15;7.90;;;27.10;99.90;;;;;;5026090;28;20165;-72
2021/06/25 09:47:44;;;;;;;9.52;8.45;;;27.80;95.90;;;;;;5033683;28;20077;-70
2021/06/25 09:50:13;;;;;;;7.88;7.07;;;27.40;94.00;;;;;;5034146;28;20550;-71
2021/06/25 09:52:51;;;;;;;9.75;7.38;;;26.60;94.00;;;;;;5021503;28;20038;-71
2021/06/25 09:55:19;;;;;;;10.80;8.63;;;26.10;95.60;;;;;;5014626;28;20135;-69
2021/06/25 09:58:24;;;;;;;8.45;7.75;;;25.40;97.90;;;;;;5027095;28;20069;-70
2021/06/25 10:03:43;;;;;;;8.75;7.75;;;25.80;98.60;;;;;;5033831;28;20060;-73
2021/06/25 10:06:12;;;;;;;9.93;7.85;;;25.70;95.40;;;;;;5033774;28;20049;-71
2021/06/25 10:08:38;;;;;;;9.45;8.10;;;25.70;95.60;;;;;;5021095;28;20558;-73
2021/06/25 10:11:06;;;;;;;10.57;8.00;;;25.20;97.00;;;;;;5016390;28;20045;-73
2021/06/25 10:13:35;;;;;;;9.05;7.75;;;24.70;98.70;;;;;;5033085;28;20045;-70
2021/06/25 10:16:03;;;;;;;8.32;7.53;;;24.50;99.90;;;;;;5038350;28;20119;-71
2021/06/25 10:18:35;;;;;;;8.77;7.30;;;24.40;99.90;;;;;;5035660;28;20378;-71
2021/06/25 10:21:04;;;;;;;9.43;8.43;;;24.50;99.90;;;;;;5033668;28;20046;-71
2021/06/25 10:23:34;;;;;;;8.95;7.95;;;24.30;99.90;;;;;;5019922;28;20050;-72
2021/06/25 10:26:06;;;;;;;11.07;8.68;;;24.20;99.90;;;;;;5013502;28;20452;-71
2021/06/25 10:28:33;;;;;;;12.18;8.23;;;24.10;99.90;;;;;;5013365;28;20478;-72
2021/06/25 10:31:00;;;;;;;12.93;8.48;;;24.10;99.90;;;;;;5014842;28;20041;-70
2021/06/25 10:33:28;;;;;;;13.48;8.88;;;24.60;99.90;;;;;;5031882;28;20053;-71
2021/06/25 10:35:55;;;;;;;10.68;7.93;;;25.20;99.30;;;;;;5023602;28;20398;-71
2021/06/25 10:38:27;;;;;;;8.20;7.45;;;25.20;98.40;;;;;;5013526;28;20045;-71
2021/06/25 10:40:55;;;;;;;10.45;8.57;;;25.10;97.20;;;;;;5013145;28;20042;-71
2021/06/25 10:43:38;;;;;;;9.43;8.55;;;25.40;97.40;;;;;;5013134;28;20049;-71
2021/06/25 10:46:04;;;;;;;9.65;8.73;;;25.70;96.10;;;;;;5011928;28;20045;-72
2021/06/25 10:48:38;;;;;;;8.30;7.60;;;26.00;95.90;;;;;;5013145;28;20387;-72
2021/06/25 10:51:24;;;;;;;9.40;7.40;;;25.60;95.00;;;;;;5025028;28;20060;-72
2021/06/25 10:54:08;;;;;;;9.75;7.03;;;24.70;96.50;;;;;;5029848;28;20111;-72
2021/06/25 10:56:35;;;;;;;9.43;8.45;;;24.40;98.50;;;;;;5012877;28;20053;-72
2021/06/25 10:59:18;;;;;;;7.97;7.15;;;24.00;98.80;;;;;;5013143;28;20116;-72
2021/06/25 11:01:50;;;;;;;7.97;7.07;;;23.80;99.40;;;;;;5012955;28;20727;-70
2021/06/25 11:04:32;;;;;;;7.90;6.78;;;23.50;99.90;;;;;;5012817;28;20073;-70
2021/06/25 11:07:02;;;;;;;8.88;7.35;;;24.10;98.30;;;;;;5015117;28;20050;-71
2021/06/25 11:09:56;;;;;;;9.15;6.88;;;24.40;98.30;;;;;;5014591;28;20137;-71
2021/06/25 11:12:24;;;;;;;7.07;6.38;;;24.60;97.70;;;;;;5013761;28;20096;-70
2021/06/25 11:14:53;;;;;;;9.30;6.85;;;25.10;94.40;;;;;;5013056;28;20104;-71
2021/06/25 11:17:49;;;;;;;6.28;5.65;;;25.70;94.10;;;;;;5012516;28;20092;-72
2021/06/25 11:20:21;;;;;;;7.22;6.32;;;26.60;93.40;;;;;;5022311;28;20052;-71
2021/06/25 11:22:57;;;;;;;10.50;7.45;;;26.60;88.00;;;;;;5032477;28;20077;-71
2021/06/25 11:25:37;;;;;;;7.35;6.65;;;25.80;89.30;;;;;;5031537;28;20085;-70
2021/06/25 11:28:14;;;;;;;7.35;6.65;;;25.80;90.50;;;;;;5033248;28;20077;-72
2021/06/25 11:30:59;;;;;;;6.95;6.10;;;25.60;91.20;;;;;;5041743;28;20073;-70
2021/06/25 11:33:32;;;;;;;7.18;6.38;;;25.40;91.60;;;;;;5024970;28;20398;-70
2021/06/25 11:36:38;;;;;;;7.43;5.80;;;25.40;90.80;;;;;;5013541;28;20045;-70
2021/06/25 11:39:21;;;;;;;7.97;6.63;;;25.30;91.10;;;;;;5020320;28;20069;-70
2021/06/25 11:41:57;;;;;;;8.68;7.28;;;25.00;92.40;;;;;;5031836;28;20128;-70
2021/06/25 11:44:27;;;;;;;8.45;7.20;;;24.70;96.40;;;;;;5032446;28;20077;-72
2021/06/25 11:46:57;;;;;;;9.50;8.30;;;24.20;98.70;;;;;;5031873;28;20057;-71
2021/06/25 11:49:26;;;;;;;8.55;6.55;;;24.10;97.90;;;;;;5027466;28;20053;-71
2021/06/25 11:51:52;;;;;;;7.97;7.18;;;24.20;95.00;;;;;;5021085;28;20574;-70
2021/06/25 11:54:21;;;;;;;10.77;9.27;;;24.40;93.70;;;;;;5032168;28;20081;-71
2021/06/25 11:56:48;;;;;;;7.85;6.75;;;24.50;93.90;;;;;;5024706;28;20382;-70
2021/06/25 11:59:17;;;;;;;8.88;7.03;;;24.40;93.40;;;;;;5031760;28;20046;-71
2021/06/25 12:01:55;;;;;;;7.72;6.90;;;24.60;92.30;;;;;;5031947;28;20080;-71
2021/06/25 12:04:39;;;;;;;10.38;7.95;;;24.40;91.90;;;;;;5031864;28;20512;-71
2021/06/25 12:07:08;;;;;;;7.10;6.40;;;24.60;93.00;;;;;;5031647;28;20046;-72
2021/06/25 12:09:42;;;;;;;7.63;6.93;;;25.10;92.50;;;;;;5032017;28;20045;-70
2021/06/25 12:12:11;;;;;;;7.20;6.53;;;25.30;90.10;;;;;;5031684;28;20053;-70
2021/06/25 12:14:46;;;;;;;5.93;5.43;;;25.50;89.80;;;;;;5031501;28;20053;-71
2021/06/25 12:17:13;;;;;;;6.43;5.93;;;26.20;87.40;;;;;;5031400;28;20099;-70
2021/06/25 12:19:41;;;;;;;7.50;5.82;;;26.10;82.80;;;;;;5031973;28;20084;-71
2021/06/25 12:22:08;;;;;;;8.38;6.25;;;26.40;83.50;;;;;;5031939;28;20409;-71
2021/06/25 12:24:48;;;;;;;6.43;5.82;;;25.70;83.10;;;;;;5031571;28;20049;-70
2021/06/25 12:27:15;;;;;;;5.38;4.93;;;25.50;84.20;;;;;;5029530;28;20074;-71
2021/06/25 12:29:42;;;;;;;6.63;5.97;;;25.50;85.50;;;;;;5031555;28;20516;-71
2021/06/25 12:32:17;;;;;;;6.22;4.88;;;24.90;84.50;;;;;;5031509;28;20084;-72
2021/06/25 12:34:44;;;;;;;7.55;5.45;;;25.50;87.40;;;;;;5031773;28;20095;-71
2021/06/25 12:37:11;;;;;;;5.43;4.60;;;26.60;90.80;;;;;;5034706;28;20084;-72
2021/06/25 12:39:38;;;;;;;4.43;4.03;;;27.70;83.40;;;;;;5030552;28;20037;-72
2021/06/25 12:42:05;;;;;;;5.40;4.20;;;28.10;73.10;;;;;;5016478;28;20552;-72
2021/06/25 12:44:32;;;;;;;7.85;5.53;;;28.00;73.40;;;;;;5016697;28;20048;-72
2021/06/25 12:47:04;;;;;;;5.18;4.65;;;27.60;71.60;;;;;;5034956;28;20047;-72
2021/06/25 12:49:35;;;;;;;8.38;5.43;;;27.30;71.40;;;;;;5035342;28;20096;-71
2021/06/25 12:52:01;;;;;;;4.82;4.32;;;27.70;72.60;;;;;;5024957;28;20397;-71
2021/06/25 12:54:31;;;;;;;5.32;4.25;;;28.40;68.00;;;;;;5015245;28;20081;-70
2021/06/25 12:56:58;;;;;;;4.45;4.07;;;29.10;65.70;;;;;;5023997;28;20046;-71
2021/06/25 12:59:27;;;;;;;3.92;3.63;;;29.10;64.80;;;;;;5035016;28;20099;-71
2021/06/25 13:01:58;;;;;;;4.85;4.30;;;28.80;64.70;;;;;;5034979;28;20084;-71